Time;durP1;ratioP1;P1;durP2;ratioP2;P2;SDS_P1;SDS_P2;PMS_P1;PMS_P2;Temp;Humidity;BMP_temperature;BMP_pressure;BME280_temperature;BME280_humidity;BME280_pressure;Samples;Min_cycle;Max_cycle;Signal;HPM_P1;HPM_P2
2023/07/02 00:00:14;;;;;;;5.27;4.30;;;;;;;;;;4986798;28;20172;-74
2023/07/02 00:02:40;;;;;;;4.07;3.53;;;;;;;;;;5000539;28;20260;-73
2023/07/02 00:05:06;;;;;;;5.93;4.27;;;;;;;;;;5003227;28;20234;-71
2023/07/02 00:07:31;;;;;;;6.90;4.20;;;;;;;;;;5009406;28;20189;-72
2023/07/02 00:09:56;;;;;;;3.87;3.50;;;;;;;;;;5005912;28;20187;-72
2023/07/02 00:12:21;;;;;;;3.83;3.53;;;;;;;;;;5005426;28;20175;-72
2023/07/02 00:14:47;;;;;;;3.83;3.53;;;;;;;;;;5003843;28;20191;-72
2023/07/02 00:17:12;;;;;;;4.07;3.63;;;;;;;;;;5002591;28;20176;-72
2023/07/02 00:19:39;;;;;;;4.47;3.73;;;;;;;;;;4982560;28;20271;-72
2023/07/02 00:22:05;;;;;;;4.20;3.73;;;;;;;;;;4991012;28;20269;-72
2023/07/02 00:24:30;;;;;;;5.40;3.90;;;;;;;;;;4989257;28;20286;-72
2023/07/02 00:26:55;;;;;;;5.57;4.00;;;;;;;;;;4987526;28;20285;-72
2023/07/02 00:29:20;;;;;;;3.73;3.43;;;;;;;;;;5009923;28;20180;-71
2023/07/02 00:31:46;;;;;;;4.70;4.30;;;;;;;;;;5003795;28;20221;-72
2023/07/02 00:34:11;;;;;;;4.10;3.70;;;;;;;;;;4996757;28;20298;-72
2023/07/02 00:36:36;;;;;;;4.13;3.73;;;;;;;;;;5003818;28;20205;-72
2023/07/02 00:39:01;;;;;;;4.60;3.90;;;;;;;;;;5012059;28;20234;-72
2023/07/02 00:41:26;;;;;;;4.00;3.47;;;;;;;;;;4981343;28;20184;-72
2023/07/02 00:43:54;;;;;;;3.70;3.40;;;;;;;;;;5006929;28;20176;-72
2023/07/02 00:46:20;;;;;;;6.03;3.97;;;;;;;;;;4982323;28;20183;-72
2023/07/02 00:48:49;;;;;;;4.47;4.07;;;;;;;;;;4984457;28;20187;-72
2023/07/02 00:51:15;;;;;;;4.03;3.63;;;;;;;;;;4988174;28;20249;-72
2023/07/02 00:53:40;;;;;;;4.77;3.73;;;;;;;;;;4977198;28;20228;-71
2023/07/02 00:56:06;;;;;;;4.63;3.77;;;;;;;;;;4966626;28;20279;-72
2023/07/02 00:58:34;;;;;;;4.43;4.03;;;;;;;;;;4981399;28;20176;-72
2023/07/02 01:00:59;;;;;;;5.77;3.87;;;;;;;;;;4966840;28;20270;-72
2023/07/02 01:03:24;;;;;;;4.10;3.70;;;;;;;;;;4979119;28;20291;-72
2023/07/02 01:05:49;;;;;;;4.27;3.87;;;;;;;;;;4984904;28;20191;-72
2023/07/02 01:08:14;;;;;;;6.27;4.40;;;;;;;;;;4975439;28;20185;-72
2023/07/02 01:10:42;;;;;;;4.37;3.97;;;;;;;;;;4960716;28;20187;-72
2023/07/02 01:13:14;;;;;;;4.60;3.73;;;;;;;;;;4983451;28;20184;-72
2023/07/02 01:15:39;;;;;;;4.17;3.50;;;;;;;;;;4979879;28;20204;-72
2023/07/02 01:18:05;;;;;;;4.10;3.70;;;;;;;;;;4966950;28;20172;-72
2023/07/02 01:20:31;;;;;;;5.90;3.97;;;;;;;;;;4967694;28;20183;-72
2023/07/02 01:22:57;;;;;;;3.67;3.33;;;;;;;;;;4966992;28;20244;-72
2023/07/02 01:25:24;;;;;;;3.67;3.37;;;;;;;;;;4984165;28;20285;-72
2023/07/02 01:27:49;;;;;;;3.53;3.23;;;;;;;;;;4982034;28;20309;-72
2023/07/02 01:30:15;;;;;;;3.43;3.13;;;;;;;;;;4985215;28;20253;-72
2023/07/02 01:32:41;;;;;;;3.67;3.37;;;;;;;;;;4965432;28;20180;-71
2023/07/02 01:35:06;;;;;;;4.37;3.20;;;;;;;;;;4965486;28;20208;-72
2023/07/02 01:37:37;;;;;;;3.40;3.10;;;;;;;;;;4958829;28;20210;-72
2023/07/02 01:40:03;;;;;;;7.17;4.23;;;;;;;;;;4966486;28;20193;-72
2023/07/02 01:42:28;;;;;;;6.00;3.30;;;;;;;;;;4976763;28;20211;-72
2023/07/02 01:44:56;;;;;;;4.00;3.60;;;;;;;;;;4980162;28;20245;-72
2023/07/02 01:47:21;;;;;;;3.80;3.43;;;;;;;;;;4965732;28;20283;-72
2023/07/02 01:49:47;;;;;;;3.63;3.23;;;;;;;;;;4961896;28;20288;-72
2023/07/02 01:52:12;;;;;;;4.97;3.80;;;;;;;;;;4966020;28;20251;-72
2023/07/02 01:54:37;;;;;;;3.53;3.23;;;;;;;;;;4986250;28;20202;-72
2023/07/02 01:57:03;;;;;;;4.03;3.63;;;;;;;;;;4986185;28;20175;-72
2023/07/02 01:59:29;;;;;;;4.53;3.60;;;;;;;;;;4986180;28;20262;-72
2023/07/02 02:01:54;;;;;;;4.40;4.00;;;;;;;;;;4983857;28;20313;-72
2023/07/02 02:04:19;;;;;;;3.97;3.57;;;;;;;;;;4989696;28;20236;-72
2023/07/02 02:06:44;;;;;;;3.47;3.13;;;;;;;;;;4987633;28;20189;-72
2023/07/02 02:09:10;;;;;;;3.90;3.10;;;;;;;;;;5002932;28;20166;-72
2023/07/02 02:11:39;;;;;;;5.47;3.23;;;;;;;;;;5001484;28;20256;-71
2023/07/02 02:14:04;;;;;;;3.20;2.90;;;;;;;;;;4994085;28;20178;-71
2023/07/02 02:16:35;;;;;;;5.13;3.70;;;;;;;;;;4988666;28;20177;-71
2023/07/02 02:19:01;;;;;;;3.93;3.63;;;;;;;;;;4988539;28;20251;-72
2023/07/02 02:21:26;;;;;;;3.90;3.60;;;;;;;;;;4990903;28;20182;-72
2023/07/02 02:23:51;;;;;;;3.80;3.30;;;;;;;;;;5003274;28;20262;-71
2023/07/02 02:26:16;;;;;;;6.13;3.83;;;;;;;;;;4985898;28;20180;-72
2023/07/02 02:28:42;;;;;;;6.00;3.10;;;;;;;;;;4985030;28;20215;-71
2023/07/02 02:31:07;;;;;;;7.63;4.23;;;;;;;;;;4986124;28;20184;-72
2023/07/02 02:33:33;;;;;;;6.43;4.17;;;;;;;;;;5001267;28;20268;-72
2023/07/02 02:36:00;;;;;;;4.00;3.60;;;;;;;;;;4986459;28;20314;-72
2023/07/02 02:38:25;;;;;;;4.93;3.67;;;;;;;;;;5000936;28;20208;-73
2023/07/02 02:40:50;;;;;;;6.43;3.80;;;;;;;;;;5001910;28;20227;-72
2023/07/02 02:43:18;;;;;;;3.53;3.20;;;;;;;;;;4985065;28;20190;-72
2023/07/02 02:45:44;;;;;;;4.47;3.90;;;;;;;;;;4985540;28;20182;-73
2023/07/02 02:48:09;;;;;;;4.23;3.17;;;;;;;;;;4986113;28;20200;-72
2023/07/02 02:50:34;;;;;;;4.30;3.73;;;;;;;;;;5002898;28;20209;-72
2023/07/02 02:52:59;;;;;;;4.13;3.77;;;;;;;;;;4976206;28;20226;-73
2023/07/02 02:55:24;;;;;;;7.33;3.87;;;;;;;;;;4959944;28;20260;-72
2023/07/02 02:57:49;;;;;;;6.90;4.70;;;;;;;;;;4962569;28;20210;-72
2023/07/02 03:00:16;;;;;;;4.23;3.57;;;;;;;;;;4983323;28;20179;-72
2023/07/02 03:02:42;;;;;;;4.63;3.23;;;;;;;;;;4979339;28;20183;-72
2023/07/02 03:05:07;;;;;;;4.43;3.77;;;;;;;;;;4975284;28;20192;-73
2023/07/02 03:07:32;;;;;;;4.50;3.40;;;;;;;;;;4964565;28;20176;-72
2023/07/02 03:09:58;;;;;;;5.43;4.27;;;;;;;;;;4961273;28;20186;-72
2023/07/02 03:12:23;;;;;;;4.27;3.87;;;;;;;;;;4959211;28;20191;-72
2023/07/02 03:14:52;;;;;;;6.37;4.20;;;;;;;;;;4963866;28;20240;-73
2023/07/02 03:17:18;;;;;;;6.17;4.10;;;;;;;;;;4961703;28;20185;-72
2023/07/02 03:19:43;;;;;;;5.43;4.17;;;;;;;;;;4977213;28;20177;-72
2023/07/02 03:22:09;;;;;;;5.07;3.57;;;;;;;;;;4964235;28;20186;-72
2023/07/02 03:24:34;;;;;;;5.50;3.90;;;;;;;;;;4959215;28;20238;-72
2023/07/02 03:26:59;;;;;;;4.47;4.07;;;;;;;;;;4976152;28;20185;-72
2023/07/02 03:29:24;;;;;;;3.73;3.37;;;;;;;;;;4961328;28;20210;-72
2023/07/02 03:31:50;;;;;;;5.30;4.23;;;;;;;;;;4959886;28;20213;-72
2023/07/02 03:34:15;;;;;;;4.53;4.13;;;;;;;;;;4964707;28;20177;-72
2023/07/02 03:36:40;;;;;;;6.07;4.60;;;;;;;;;;4964569;28;20182;-72
2023/07/02 03:39:05;;;;;;;4.70;4.20;;;;;;;;;;4956824;28;20186;-72
2023/07/02 03:41:33;;;;;;;5.33;4.83;;;;;;;;;;4964965;28;20216;-73
2023/07/02 03:43:59;;;;;;;4.33;3.73;;;;;;;;;;4975662;28;20252;-71
2023/07/02 03:46:24;;;;;;;4.20;3.50;;;;;;;;;;4984008;28;20269;-72
2023/07/02 03:48:49;;;;;;;4.20;3.83;;;;;;;;;;4957961;28;20320;-72
2023/07/02 03:51:14;;;;;;;5.23;4.53;;;;;;;;;;4963517;28;20212;-72
2023/07/02 03:53:40;;;;;;;6.37;4.30;;;;;;;;;;4958797;28;20237;-72
2023/07/02 03:56:05;;;;;;;4.93;4.20;;;;;;;;;;4981735;28;20209;-72
2023/07/02 03:58:33;;;;;;;7.83;4.50;;;;;;;;;;4964824;28;20178;-72
2023/07/02 04:00:59;;;;;;;7.97;4.87;;;;;;;;;;4960818;28;20206;-72
2023/07/02 04:03:24;;;;;;;5.20;4.30;;;;;;;;;;4971207;28;20212;-73
2023/07/02 04:05:49;;;;;;;8.50;4.77;;;;;;;;;;4990448;28;20182;-72
2023/07/02 04:08:15;;;;;;;6.83;4.93;;;;;;;;;;4973475;28;20174;-72
2023/07/02 04:10:40;;;;;;;6.50;4.80;;;;;;;;;;4960371;28;20191;-71
2023/07/02 04:13:05;;;;;;;7.67;5.27;;;;;;;;;;4965890;28;20190;-72
2023/07/02 04:15:31;;;;;;;7.97;4.30;;;;;;;;;;4985273;28;20202;-72
2023/07/02 04:17:57;;;;;;;8.97;4.63;;;;;;;;;;4959927;28;20282;-72
2023/07/02 04:20:22;;;;;;;6.43;4.30;;;;;;;;;;4978491;28;20276;-72
2023/07/02 04:22:47;;;;;;;8.00;5.30;;;;;;;;;;4964009;28;20281;-72
2023/07/02 04:25:16;;;;;;;5.07;4.10;;;;;;;;;;4983765;28;20182;-72
2023/07/02 04:27:42;;;;;;;6.83;5.07;;;;;;;;;;4984291;28;20213;-71
2023/07/02 04:30:08;;;;;;;6.57;4.73;;;;;;;;;;4984891;28;20209;-72
2023/07/02 04:32:33;;;;;;;5.03;4.57;;;;;;;;;;4968320;28;20185;-72
2023/07/02 04:34:58;;;;;;;9.27;4.53;;;;;;;;;;4975687;28;20264;-71
2023/07/02 04:37:23;;;;;;;6.93;4.57;;;;;;;;;;4965675;28;20268;-72
2023/07/02 04:39:49;;;;;;;7.33;4.40;;;;;;;;;;4962674;28;20192;-72
2023/07/02 04:42:14;;;;;;;7.97;5.40;;;;;;;;;;4982001;28;20254;-71
2023/07/02 04:44:41;;;;;;;7.23;5.43;;;;;;;;;;4982565;28;20185;-72
2023/07/02 04:47:06;;;;;;;9.17;6.83;;;;;;;;;;4966394;28;20183;-72
2023/07/02 04:49:31;;;;;;;8.83;5.33;;;;;;;;;;4984293;28;20202;-72
2023/07/02 04:51:56;;;;;;;9.13;5.73;;;;;;;;;;4966579;28;20252;-72
2023/07/02 04:54:22;;;;;;;6.50;5.43;;;;;;;;;;4965963;28;20225;-72
2023/07/02 04:56:47;;;;;;;6.27;4.97;;;;;;;;;;4965281;28;20204;-72
2023/07/02 04:59:13;;;;;;;8.30;6.07;;;;;;;;;;4984355;28;20168;-71
2023/07/02 05:01:38;;;;;;;7.13;5.50;;;;;;;;;;4960741;28;20211;-71
2023/07/02 05:04:05;;;;;;;7.10;5.83;;;;;;;;;;4966123;28;20186;-72
2023/07/02 05:06:30;;;;;;;6.50;5.70;;;;;;;;;;4962542;28;20260;-72
2023/07/02 05:08:55;;;;;;;5.90;5.30;;;;;;;;;;4968026;28;20213;-71
2023/07/02 05:11:20;;;;;;;9.17;5.10;;;;;;;;;;4978741;28;20189;-71
2023/07/02 05:13:45;;;;;;;9.60;5.47;;;;;;;;;;4979465;28;20197;-72
2023/07/02 05:16:11;;;;;;;9.00;6.07;;;;;;;;;;4979944;28;20213;-72
2023/07/02 05:18:36;;;;;;;6.40;5.20;;;;;;;;;;4978750;28;20188;-71
2023/07/02 05:21:01;;;;;;;12.50;6.43;;;;;;;;;;4985311;28;20176;-72
2023/07/02 05:23:26;;;;;;;13.13;6.33;;;;;;;;;;4984020;28;20182;-71
2023/07/02 05:25:52;;;;;;;8.17;6.07;;;;;;;;;;4981680;28;20222;-72
2023/07/02 05:28:17;;;;;;;8.93;6.70;;;;;;;;;;4956779;28;20233;-71
2023/07/02 05:30:42;;;;;;;7.47;6.03;;;;;;;;;;4984302;28;20201;-71
2023/07/02 05:33:07;;;;;;;10.30;6.47;;;;;;;;;;4957334;28;20228;-72
2023/07/02 05:35:32;;;;;;;14.30;6.70;;;;;;;;;;4984030;28;20238;-71
2023/07/02 05:37:58;;;;;;;8.67;6.07;;;;;;;;;;4961444;28;20187;-72
2023/07/02 05:40:23;;;;;;;12.20;6.83;;;;;;;;;;4980478;28;20186;-71
2023/07/02 05:42:48;;;;;;;8.77;5.47;;;;;;;;;;4978706;28;20189;-72
2023/07/02 05:45:13;;;;;;;8.93;6.50;;;;;;;;;;4969001;28;20189;-72
2023/07/02 05:47:39;;;;;;;9.93;7.37;;;;;;;;;;4956714;28;20181;-72
2023/07/02 05:50:05;;;;;;;8.20;6.73;;;;;;;;;;4983034;28;20197;-72
2023/07/02 05:52:30;;;;;;;11.27;7.67;;;;;;;;;;4984018;28;20226;-71
2023/07/02 05:54:56;;;;;;;9.03;6.90;;;;;;;;;;4985118;28;20219;-72
2023/07/02 05:57:21;;;;;;;12.60;6.83;;;;;;;;;;4995639;28;20165;-71
2023/07/02 05:59:46;;;;;;;10.83;6.63;;;;;;;;;;5004710;28;20184;-71
2023/07/02 06:02:11;;;;;;;12.00;7.40;;;;;;;;;;4988838;28;20197;-71
2023/07/02 06:04:36;;;;;;;13.27;8.63;;;;;;;;;;5002051;28;20208;-71
2023/07/02 06:07:02;;;;;;;9.90;7.10;;;;;;;;;;4981640;28;20190;-71
2023/07/02 06:09:27;;;;;;;9.37;7.77;;;;;;;;;;4981867;28;20245;-71
2023/07/02 06:11:52;;;;;;;13.53;7.90;;;;;;;;;;5002415;28;20205;-72
2023/07/02 06:14:18;;;;;;;11.57;8.53;;;;;;;;;;5002739;28;20263;-71
2023/07/02 06:16:43;;;;;;;12.23;8.27;;;;;;;;;;4998346;28;20300;-71
2023/07/02 06:19:08;;;;;;;15.37;8.67;;;;;;;;;;4984892;28;20179;-72
2023/07/02 06:21:33;;;;;;;14.63;8.27;;;;;;;;;;4980977;28;20172;-71
2023/07/02 06:24:01;;;;;;;11.40;8.07;;;;;;;;;;5000194;28;20183;-71
2023/07/02 06:26:27;;;;;;;11.73;9.10;;;;;;;;;;4985032;28;20193;-71
2023/07/02 06:28:52;;;;;;;12.03;8.30;;;;;;;;;;4985999;28;20187;-71
2023/07/02 06:31:17;;;;;;;9.67;7.50;;;;;;;;;;4985295;28;20287;-71
2023/07/02 06:33:42;;;;;;;11.93;8.13;;;;;;;;;;4985537;28;20186;-71
2023/07/02 06:36:08;;;;;;;17.70;9.60;;;;;;;;;;4986347;28;20236;-71
2023/07/02 06:38:33;;;;;;;16.57;10.03;;;;;;;;;;5006019;28;20177;-71
2023/07/02 06:40:58;;;;;;;13.57;10.43;;;;;;;;;;4982545;28;20177;-71
2023/07/02 06:43:23;;;;;;;16.63;9.30;;;;;;;;;;4982558;28;20228;-71
2023/07/02 06:45:48;;;;;;;13.90;10.67;;;;;;;;;;5009930;28;20206;-71
2023/07/02 06:48:17;;;;;;;16.00;9.93;;;;;;;;;;4989604;28;20184;-71
2023/07/02 06:50:46;;;;;;;13.40;9.17;;;;;;;;;;5010611;28;20201;-71
2023/07/02 06:53:11;;;;;;;15.03;8.90;;;;;;;;;;4976746;28;20235;-71
2023/07/02 06:55:37;;;;;;;17.60;10.73;;;;;;;;;;4982609;28;20247;-71
2023/07/02 06:58:04;;;;;;;12.27;9.27;;;;;;;;;;4978925;28;20489;-71
2023/07/02 07:00:30;;;;;;;13.83;9.87;;;;;;;;;;4962229;28;20187;-71
2023/07/02 07:02:56;;;;;;;16.87;9.40;;;;;;;;;;4975948;28;20185;-71
2023/07/02 07:05:21;;;;;;;15.70;9.57;;;;;;;;;;4978180;28;20192;-72
2023/07/02 07:07:46;;;;;;;14.80;9.93;;;;;;;;;;4981542;28;20188;-72
2023/07/02 07:10:11;;;;;;;14.60;9.73;;;;;;;;;;4978882;28;20180;-72
2023/07/02 07:12:37;;;;;;;13.67;10.70;;;;;;;;;;4972619;28;20175;-72
2023/07/02 07:15:02;;;;;;;14.70;9.23;;;;;;;;;;4979543;28;20224;-71
2023/07/02 07:17:28;;;;;;;16.27;10.33;;;;;;;;;;4959883;28;20192;-71
2023/07/02 07:19:53;;;;;;;12.67;8.53;;;;;;;;;;4969333;28;20222;-72
2023/07/02 07:22:18;;;;;;;14.97;9.13;;;;;;;;;;4961134;28;20174;-73
2023/07/02 07:24:43;;;;;;;16.63;10.60;;;;;;;;;;4979797;28;20190;-71
2023/07/02 07:27:09;;;;;;;16.47;9.90;;;;;;;;;;4976266;28;20195;-70
2023/07/02 07:29:34;;;;;;;17.90;10.90;;;;;;;;;;4978730;28;20179;-71
2023/07/02 07:31:59;;;;;;;19.67;11.33;;;;;;;;;;4973796;28;20227;-71
2023/07/02 07:34:24;;;;;;;14.40;9.90;;;;;;;;;;4975121;28;20188;-73
2023/07/02 07:36:49;;;;;;;15.73;11.43;;;;;;;;;;4982047;28;20172;-73
2023/07/02 07:39:15;;;;;;;16.97;11.50;;;;;;;;;;4964392;28;20212;-72
2023/07/02 07:41:40;;;;;;;15.27;10.93;;;;;;;;;;4982082;28;20265;-73
2023/07/02 07:44:05;;;;;;;15.93;11.23;;;;;;;;;;4979314;28;20260;-72
2023/07/02 07:46:30;;;;;;;26.57;20.60;;;;;;;;;;4977945;28;20187;-73
2023/07/02 07:48:56;;;;;;;15.40;11.63;;;;;;;;;;4983723;28;20280;-72
2023/07/02 07:51:21;;;;;;;17.23;12.13;;;;;;;;;;4975983;28;20284;-73
2023/07/02 07:53:46;;;;;;;24.07;15.03;;;;;;;;;;4966278;28;20235;-72
2023/07/02 07:56:11;;;;;;;19.70;14.20;;;;;;;;;;4969209;28;20204;-73
2023/07/02 07:58:37;;;;;;;15.33;11.27;;;;;;;;;;4969428;28;20186;-72
2023/07/02 08:01:02;;;;;;;17.50;13.70;;;;;;;;;;4985205;28;20232;-73
2023/07/02 08:03:27;;;;;;;16.00;10.90;;;;;;;;;;4975802;28;20192;-73
2023/07/02 08:05:52;;;;;;;18.50;12.63;;;;;;;;;;4984952;28;20263;-74
2023/07/02 08:08:18;;;;;;;19.50;12.57;;;;;;;;;;4992616;28;20183;-73
2023/07/02 08:10:43;;;;;;;22.60;16.43;;;;;;;;;;4986875;28;20182;-73
2023/07/02 08:13:08;;;;;;;22.63;15.10;;;;;;;;;;4969818;28;20180;-73
2023/07/02 08:15:33;;;;;;;18.37;12.53;;;;;;;;;;4984032;28;20205;-73
2023/07/02 08:17:59;;;;;;;20.80;12.90;;;;;;;;;;4985832;28;20216;-73
2023/07/02 08:20:25;;;;;;;20.97;14.57;;;;;;;;;;4984011;28;20179;-73
2023/07/02 08:22:53;;;;;;;17.40;13.30;;;;;;;;;;4964606;28;20183;-73
2023/07/02 08:25:19;;;;;;;21.17;14.87;;;;;;;;;;4990708;28;20182;-73
2023/07/02 08:27:45;;;;;;;19.27;14.33;;;;;;;;;;4967900;28;20181;-73
2023/07/02 08:30:10;;;;;;;17.10;13.50;;;;;;;;;;4965628;28;20211;-73
2023/07/02 08:32:35;;;;;;;19.43;12.90;;;;;;;;;;4977171;28;20187;-73
2023/07/02 08:35:01;;;;;;;19.03;12.43;;;;;;;;;;4963358;28;20207;-73
2023/07/02 08:37:26;;;;;;;17.27;12.97;;;;;;;;;;4967380;28;20183;-73
2023/07/02 08:39:51;;;;;;;18.70;13.57;;;;;;;;;;4984169;28;20210;-73
2023/07/02 08:42:16;;;;;;;18.87;12.17;;;;;;;;;;4966853;28;20190;-73
2023/07/02 08:44:45;;;;;;;19.93;13.30;;;;;;;;;;4985148;28;20192;-73
2023/07/02 08:47:10;;;;;;;18.20;12.67;;;;;;;;;;4986280;28;20190;-73
2023/07/02 08:49:35;;;;;;;20.33;13.60;;;;;;;;;;4984468;28;20207;-73
2023/07/02 08:52:00;;;;;;;21.83;14.03;;;;;;;;;;4967234;28;20199;-73
2023/07/02 08:54:26;;;;;;;16.20;12.97;;;;;;;;;;5009524;28;20288;-73
2023/07/02 08:56:51;;;;;;;19.10;12.73;;;;;;;;;;5000443;28;20181;-73
2023/07/02 08:59:16;;;;;;;23.23;14.07;;;;;;;;;;5004974;28;20192;-73
2023/07/02 09:01:49;;;;;;;16.50;11.87;;;;;;;;;;4978438;28;20180;-73
2023/07/02 09:04:21;;;;;;;17.57;12.27;;;;;;;;;;5007698;28;20180;-73
2023/07/02 09:06:47;;;;;;;20.23;12.33;;;;;;;;;;4996638;28;20241;-73
2023/07/02 09:09:12;;;;;;;22.07;13.10;;;;;;;;;;4996049;28;20180;-73
2023/07/02 09:11:48;;;;;;;22.20;13.00;;;;;;;;;;4988756;28;20212;-73
2023/07/02 09:14:23;;;;;;;21.77;13.53;;;;;;;;;;4979250;28;20185;-73
2023/07/02 09:16:48;;;;;;;18.13;13.13;;;;;;;;;;5002098;28;20274;-73
2023/07/02 09:19:14;;;;;;;22.57;14.47;;;;;;;;;;4988047;28;20259;-73
2023/07/02 09:21:46;;;;;;;16.33;13.43;;;;;;;;;;5004742;28;20184;-73
2023/07/02 09:24:12;;;;;;;18.83;13.03;;;;;;;;;;4991560;28;20192;-73
2023/07/02 09:26:37;;;;;;;17.13;12.30;;;;;;;;;;5009273;28;20225;-73
2023/07/02 09:29:02;;;;;;;18.37;13.07;;;;;;;;;;5012627;28;20214;-73
2023/07/02 09:31:28;;;;;;;15.90;11.97;;;;;;;;;;4989755;28;20210;-73
2023/07/02 09:34:00;;;;;;;23.07;13.13;;;;;;;;;;4998872;28;20194;-73
2023/07/02 09:36:25;;;;;;;19.40;13.23;;;;;;;;;;4982824;28;20211;-73
2023/07/02 09:38:51;;;;;;;20.43;13.70;;;;;;;;;;4983176;28;20179;-73
2023/07/02 09:41:16;;;;;;;15.47;12.93;;;;;;;;;;4984537;28;20234;-73
2023/07/02 09:43:41;;;;;;;18.67;14.27;;;;;;;;;;4994896;28;20176;-73
2023/07/02 09:46:06;;;;;;;16.57;13.67;;;;;;;;;;4998851;28;20226;-73
2023/07/02 09:48:33;;;;;;;21.43;15.30;;;;;;;;;;5003028;28;20172;-73
2023/07/02 09:50:59;;;;;;;18.90;13.07;;;;;;;;;;4980550;28;20214;-73
2023/07/02 09:53:26;;;;;;;14.30;12.77;;;;;;;;;;5000598;28;20222;-73
2023/07/02 09:55:51;;;;;;;16.43;12.63;;;;;;;;;;4980782;28;20221;-73
2023/07/02 09:58:16;;;;;;;20.63;14.13;;;;;;;;;;4989059;28;20186;-73
2023/07/02 10:00:42;;;;;;;16.13;13.57;;;;;;;;;;4990221;28;20180;-73
2023/07/02 10:03:07;;;;;;;18.03;13.63;;;;;;;;;;4998502;28;20180;-73
2023/07/02 10:05:33;;;;;;;17.93;12.00;;;;;;;;;;4996808;28;20185;-73
2023/07/02 10:07:59;;;;;;;19.63;13.30;;;;;;;;;;4980790;28;20292;-73
2023/07/02 10:10:28;;;;;;;19.70;13.20;;;;;;;;;;4984428;28;20213;-73
2023/07/02 10:12:53;;;;;;;15.40;11.23;;;;;;;;;;5001099;28;20174;-73
2023/07/02 10:15:28;;;;;;;15.13;10.63;;;;;;;;;;4985721;28;20259;-73
2023/07/02 10:18:00;;;;;;;15.67;12.17;;;;;;;;;;5012248;28;20186;-73
2023/07/02 10:20:39;;;;;;;18.40;13.43;;;;;;;;;;4995737;28;20177;-73
2023/07/02 10:23:05;;;;;;;18.43;13.53;;;;;;;;;;5001920;28;20199;-73
2023/07/02 10:25:38;;;;;;;16.90;11.90;;;;;;;;;;4995794;28;20272;-73
2023/07/02 10:28:16;;;;;;;17.50;12.23;;;;;;;;;;4997711;28;20182;-73
2023/07/02 10:30:42;;;;;;;16.83;12.17;;;;;;;;;;4995914;28;20295;-73
2023/07/02 10:33:09;;;;;;;15.47;12.23;;;;;;;;;;5002829;28;20211;-73
2023/07/02 10:35:34;;;;;;;16.47;12.43;;;;;;;;;;4989283;28;20202;-73
2023/07/02 10:37:59;;;;;;;19.00;11.90;;;;;;;;;;4999957;28;20269;-73
2023/07/02 10:40:25;;;;;;;14.77;12.33;;;;;;;;;;4998302;28;20176;-73
2023/07/02 10:42:51;;;;;;;14.90;13.00;;;;;;;;;;4984352;28;20189;-73
2023/07/02 10:45:17;;;;;;;22.83;13.20;;;;;;;;;;4996921;28;20270;-73
2023/07/02 10:47:42;;;;;;;17.73;13.53;;;;;;;;;;5000104;28;20214;-73
2023/07/02 10:50:15;;;;;;;18.87;13.77;;;;;;;;;;4982860;28;20221;-73
2023/07/02 10:52:40;;;;;;;20.67;13.67;;;;;;;;;;5002242;28;20242;-73
2023/07/02 10:55:06;;;;;;;20.23;13.27;;;;;;;;;;4993634;28;20211;-73
2023/07/02 10:57:31;;;;;;;18.53;13.83;;;;;;;;;;4978569;28;20291;-73
2023/07/02 11:00:04;;;;;;;17.80;13.17;;;;;;;;;;5002253;28;20192;-73
2023/07/02 11:02:39;;;;;;;18.23;13.30;;;;;;;;;;4997364;28;20179;-73
2023/07/02 11:05:11;;;;;;;18.90;13.17;;;;;;;;;;4978350;28;20193;-73
2023/07/02 11:07:37;;;;;;;14.90;11.90;;;;;;;;;;4991562;28;20218;-73
2023/07/02 11:10:02;;;;;;;16.07;12.63;;;;;;;;;;4987849;28;20194;-73
2023/07/02 11:12:29;;;;;;;17.83;14.07;;;;;;;;;;4995931;28;20183;-73
2023/07/02 11:14:54;;;;;;;16.13;12.67;;;;;;;;;;5003176;28;20199;-73
2023/07/02 11:17:24;;;;;;;18.17;13.73;;;;;;;;;;4984951;28;20178;-73
2023/07/02 11:19:50;;;;;;;18.73;13.83;;;;;;;;;;4994911;28;20186;-73
2023/07/02 11:22:16;;;;;;;18.87;13.03;;;;;;;;;;4984685;28;20180;-73
2023/07/02 11:24:41;;;;;;;19.00;13.80;;;;;;;;;;5010175;28;20177;-73
2023/07/02 11:27:06;;;;;;;16.73;12.33;;;;;;;;;;4980036;28;20199;-73
2023/07/02 11:29:32;;;;;;;17.50;13.30;;;;;;;;;;4989407;28;20199;-73
2023/07/02 11:32:06;;;;;;;18.70;13.37;;;;;;;;;;4983762;28;20185;-73
2023/07/02 11:34:32;;;;;;;16.07;13.33;;;;;;;;;;4991001;28;20173;-73
2023/07/02 11:36:58;;;;;;;16.77;12.97;;;;;;;;;;4992079;28;20180;-73
2023/07/02 11:39:23;;;;;;;19.67;14.80;;;;;;;;;;4984764;28;20177;-73
2023/07/02 11:41:50;;;;;;;18.67;13.07;;;;;;;;;;4984248;28;20259;-73
2023/07/02 11:44:15;;;;;;;13.67;11.93;;;;;;;;;;4978607;28;20195;-73
2023/07/02 11:46:40;;;;;;;18.77;13.20;;;;;;;;;;4988430;28;20185;-73
2023/07/02 11:49:08;;;;;;;16.87;12.67;;;;;;;;;;4982887;28;20182;-73
2023/07/02 11:51:33;;;;;;;16.03;12.97;;;;;;;;;;4993069;28;20203;-73
2023/07/02 11:53:58;;;;;;;15.80;12.63;;;;;;;;;;5000149;28;20256;-73
2023/07/02 11:56:23;;;;;;;18.20;13.33;;;;;;;;;;5007306;28;20210;-74
2023/07/02 11:58:49;;;;;;;17.20;12.17;;;;;;;;;;5002058;28;20206;-73
2023/07/02 12:01:14;;;;;;;20.60;13.90;;;;;;;;;;4981891;28;20171;-73
2023/07/02 12:03:39;;;;;;;15.13;12.93;;;;;;;;;;5007450;28;20289;-74
2023/07/02 12:06:05;;;;;;;18.60;13.97;;;;;;;;;;5004360;28;20226;-73
2023/07/02 12:08:30;;;;;;;16.40;13.43;;;;;;;;;;5001761;28;20286;-74
2023/07/02 12:10:55;;;;;;;16.23;13.27;;;;;;;;;;5002565;28;20174;-73
2023/07/02 12:13:20;;;;;;;17.10;13.50;;;;;;;;;;5001874;28;20229;-74
2023/07/02 12:15:52;;;;;;;14.67;12.77;;;;;;;;;;4988722;28;20210;-73
2023/07/02 12:18:17;;;;;;;18.38;14.25;;;;;;;;;;5002299;28;20190;-73
2023/07/02 12:20:42;;;;;;;14.63;12.00;;;;;;;;;;4996040;28;20537;-73
2023/07/02 12:23:07;;;;;;;16.58;12.82;;;;;;;;;;5004241;28;20248;-74
2023/07/02 12:25:33;;;;;;;17.73;14.68;;;;;;;;;;5013119;28;20237;-73
2023/07/02 12:27:58;;;;;;;18.63;14.18;;;;;;;;;;5002304;28;20197;-74
2023/07/02 12:30:23;;;;;;;15.80;12.97;;;;;;;;;;5002577;28;20210;-73
2023/07/02 12:32:48;;;;;;;16.55;13.07;;;;;;;;;;5002395;28;20203;-74
2023/07/02 12:35:14;;;;;;;17.65;14.07;;;;;;;;;;5006586;28;20226;-74
2023/07/02 12:37:43;;;;;;;16.42;12.80;;;;;;;;;;5004588;28;20493;-74
2023/07/02 12:40:09;;;;;;;16.43;13.17;;;;;;;;;;5005045;28;20193;-74
2023/07/02 12:42:34;;;;;;;15.98;12.90;;;;;;;;;;4987507;28;20180;-73
2023/07/02 12:44:59;;;;;;;15.63;11.77;;;;;;;;;;4992706;28;20266;-72
2023/07/02 12:47:24;;;;;;;18.10;13.25;;;;;;;;;;4988034;28;20183;-73
2023/07/02 12:49:49;;;;;;;17.60;13.45;;;;;;;;;;5005232;28;20207;-73
2023/07/02 12:52:14;;;;;;;17.60;12.80;;;;;;;;;;4988901;28;20195;-74
2023/07/02 12:54:40;;;;;;;16.20;13.73;;;;;;;;;;4982746;28;20229;-74
2023/07/02 12:57:05;;;;;;;15.93;12.25;;;;;;;;;;4983160;28;20229;-74
2023/07/02 12:59:30;;;;;;;17.85;14.50;;;;;;;;;;5005161;28;20208;-74
2023/07/02 13:01:56;;;;;;;14.90;13.15;;;;;;;;;;4986721;28;20175;-73
2023/07/02 13:04:21;;;;;;;13.57;12.15;;;;;;;;;;5004725;28;20183;-74
2023/07/02 13:06:46;;;;;;;15.40;12.07;;;;;;;;;;4995641;28;20194;-73
2023/07/02 13:09:11;;;;;;;13.35;11.82;;;;;;;;;;4998104;28;20210;-74
2023/07/02 13:11:38;;;;;;;17.23;13.20;;;;;;;;;;5009385;28;20193;-74
2023/07/02 13:14:03;;;;;;;13.52;12.00;;;;;;;;;;4997714;28;20194;-73
2023/07/02 13:16:28;;;;;;;17.23;12.90;;;;;;;;;;5003086;28;20207;-74
2023/07/02 13:18:56;;;;;;;17.27;13.18;;;;;;;;;;5004617;28;20184;-74
2023/07/02 13:21:21;;;;;;;18.77;13.38;;;;;;;;;;4987329;28;20184;-74
2023/07/02 13:23:46;;;;;;;12.57;11.02;;;;;;;;;;5004254;28;20194;-74
2023/07/02 13:26:12;;;;;;;15.32;12.75;;;;;;;;;;5001463;28;20176;-74
2023/07/02 13:28:37;;;;;;;15.90;12.95;;;;;;;;;;5004726;28;20191;-74
2023/07/02 13:31:02;;;;;;;14.95;11.85;;;;;;;;;;5013486;28;20274;-73
2023/07/02 13:33:28;;;;;;;14.07;10.65;;;;;;;;;;4988830;28;20211;-74
2023/07/02 13:35:54;;;;;;;14.32;12.82;;;;;;;;;;4996157;28;20208;-74
2023/07/02 13:38:19;;;;;;;17.95;12.43;;;;;;;;;;5002440;28;20258;-74
2023/07/02 13:40:44;;;;;;;14.23;12.73;;;;;;;;;;5005245;28;20179;-74
2023/07/02 13:43:09;;;;;;;16.20;12.85;;;;;;;;;;4982854;28;20240;-74
2023/07/02 13:45:35;;;;;;;14.50;11.35;;;;;;;;;;5000953;28;20180;-73
2023/07/02 13:48:00;;;;;;;17.13;12.48;;;;;;;;;;4982523;28;20195;-73
2023/07/02 13:50:25;;;;;;;18.38;12.90;;;;;;;;;;4987177;28;20203;-74
2023/07/02 13:52:50;;;;;;;14.52;11.60;;;;;;;;;;4983027;28;20356;-74
2023/07/02 13:55:16;;;;;;;18.77;13.95;;;;;;;;;;4972205;28;20200;-74
2023/07/02 13:57:41;;;;;;;14.70;12.00;;;;;;;;;;4982741;28;20187;-74
2023/07/02 14:00:06;;;;;;;13.82;12.27;;;;;;;;;;4982053;28;20198;-74
2023/07/02 14:02:32;;;;;;;14.07;12.57;;;;;;;;;;4962730;28;20216;-72
2023/07/02 14:04:58;;;;;;;17.15;12.82;;;;;;;;;;4980895;28;20310;-72
2023/07/02 14:07:23;;;;;;;16.67;11.95;;;;;;;;;;4967519;28;20180;-72
2023/07/02 14:09:48;;;;;;;16.80;10.98;;;;;;;;;;4982425;28;20192;-72
2023/07/02 14:12:14;;;;;;;16.95;12.27;;;;;;;;;;4964878;28;20177;-72
2023/07/02 14:14:39;;;;;;;17.02;13.45;;;;;;;;;;4981785;28;20184;-73
2023/07/02 14:17:04;;;;;;;14.32;12.65;;;;;;;;;;4962466;28;20177;-72
2023/07/02 14:19:30;;;;;;;21.98;13.02;;;;;;;;;;4982527;28;20183;-73